Time;durP1;ratioP1;P1;durP2;ratioP2;P2;SDS_P1;SDS_P2;PMS_P1;PMS_P2;Temp;Humidity;BMP_temperature;BMP_pressure;BME280_temperature;BME280_humidity;BME280_pressure;Samples;Min_cycle;Max_cycle;Signal;HPM_P1;HPM_P2
2022/12/17 13:10:07;;;;;;;51.28;30.15;;;-0.20;1.00;;;;;;6200954;22;21041;-80
2022/12/17 13:12:55;;;;;;;60.22;31.40;;;-0.10;1.00;;;;;;6193732;23;20200;-81
2022/12/17 13:15:56;;;;;;;55.83;29.92;;;-0.10;1.00;;;;;;6234351;22;20213;-81
2022/12/17 13:21:28;;;;;;;58.35;29.45;;;-0.10;1.00;;;;;;6248598;22;20274;-80
2022/12/17 13:24:13;;;;;;;58.67;31.95;;;-0.20;1.00;;;;;;6234888;22;20202;-88
2022/12/17 13:26:46;;;;;;;53.47;29.60;;;-0.20;1.00;;;;;;6196287;22;20213;-83
2022/12/17 13:29:36;;;;;;;53.83;29.90;;;-0.20;1.00;;;;;;6200579;22;20684;-85
2022/12/17 13:32:47;;;;;;;57.95;31.33;;;-0.20;1.00;;;;;;6270794;22;20214;-88
2022/12/17 13:35:28;;;;;;;50.88;29.88;;;-0.20;1.00;;;;;;6271511;22;20212;-77
2022/12/17 13:38:08;;;;;;;52.60;30.90;;;-0.30;1.00;;;;;;6260688;22;20223;-77
2022/12/17 13:40:50;;;;;;;52.90;30.35;;;-0.30;1.00;;;;;;6256769;22;20263;-77
2022/12/17 13:43:29;;;;;;;59.08;32.10;;;-0.30;1.00;;;;;;6237913;22;20581;-79
2022/12/17 13:45:57;;;;;;;58.30;32.30;;;-0.30;1.00;;;;;;6239705;22;20264;-77
2022/12/17 13:48:28;;;;;;;53.75;30.50;;;-0.20;1.00;;;;;;6247345;22;20233;-77
2022/12/17 13:51:05;;;;;;;55.97;30.35;;;-0.20;1.00;;;;;;6255507;22;20700;-81
2022/12/17 13:53:43;;;;;;;52.10;28.55;;;-0.20;1.00;;;;;;6256459;22;20322;-86
2022/12/17 13:56:16;;;;;;;47.00;26.83;;;-0.20;1.00;;;;;;6270628;22;20268;-80
2022/12/17 13:58:51;;;;;;;46.92;25.73;;;-0.30;1.00;;;;;;6257317;22;20231;-83
2022/12/17 14:01:24;;;;;;;48.67;26.88;;;-0.30;1.00;;;;;;6266521;22;20215;-87
2022/12/17 14:03:55;;;;;;;49.28;27.38;;;-0.30;1.00;;;;;;6257755;22;20240;-78
2022/12/17 14:06:37;;;;;;;60.35;31.15;;;-0.30;1.00;;;;;;6269226;22;20219;-78
2022/12/17 14:09:06;;;;;;;54.78;29.80;;;-0.30;1.00;;;;;;6264690;22;20213;-78
2022/12/17 14:14:33;;;;;;;54.63;29.75;;;-0.40;1.00;;;;;;6268631;22;20273;-81
2022/12/17 14:17:15;;;;;;;59.63;32.00;;;-0.40;1.00;;;;;;6259691;22;20213;-82
2022/12/17 14:19:54;;;;;;;64.00;31.73;;;-0.50;1.00;;;;;;6262209;22;20215;-83
2022/12/17 14:22:35;;;;;;;54.05;32.90;;;-0.50;1.00;;;;;;6253000;22;20208;-82
2022/12/17 14:25:14;;;;;;;50.63;29.58;;;-0.50;1.00;;;;;;6260998;22;20239;-81
2022/12/17 14:27:53;;;;;;;52.28;29.13;;;-0.60;1.00;;;;;;6244498;22;20239;-80
2022/12/17 14:30:37;;;;;;;48.92;28.48;;;-0.60;1.00;;;;;;6284784;22;20236;-82
2022/12/17 14:33:25;;;;;;;46.55;27.90;;;-0.60;1.00;;;;;;6265450;22;20192;-77
2022/12/17 14:35:53;;;;;;;51.70;29.80;;;-0.60;1.00;;;;;;6228317;22;20984;-81
2022/12/17 14:38:35;;;;;;;59.90;31.63;;;-0.60;1.00;;;;;;6233178;22;20234;-78
2022/12/17 14:44:03;;;;;;;49.92;29.08;;;-0.70;1.00;;;;;;6225494;22;20213;-78
2022/12/17 14:46:33;;;;;;;53.65;31.13;;;-0.60;1.00;;;;;;6231617;22;20296;-82
2022/12/17 14:49:17;;;;;;;54.35;28.23;;;-0.70;1.00;;;;;;6230385;22;20205;-81
2022/12/17 14:51:46;;;;;;;64.68;31.25;;;-0.70;1.00;;;;;;6227973;22;20218;-78
2022/12/17 14:54:29;;;;;;;55.65;28.38;;;-0.80;1.00;;;;;;6219044;22;20281;-78
2022/12/17 14:56:58;;;;;;;57.10;30.23;;;-0.80;1.00;;;;;;6224260;22;20275;-81
2022/12/17 14:59:33;;;;;;;51.20;28.25;;;-0.90;1.00;;;;;;6215970;22;20602;-80
2022/12/17 15:02:07;;;;;;;52.50;30.08;;;-0.80;1.00;;;;;;6233971;22;20208;-83
2022/12/17 15:04:36;;;;;;;50.05;27.95;;;-0.90;1.00;;;;;;6203960;22;20205;-83
2022/12/17 15:07:06;;;;;;;50.08;26.25;;;-0.90;1.00;;;;;;6222163;22;20201;-84
2022/12/17 15:09:40;;;;;;;51.97;31.02;;;-1.00;1.00;;;;;;6243749;22;20197;-84
2022/12/17 15:12:08;;;;;;;49.40;27.80;;;-1.10;1.00;;;;;;6223787;22;20212;-82
2022/12/17 15:14:35;;;;;;;46.72;29.02;;;-1.10;1.00;;;;;;6217963;22;20209;-83
2022/12/17 15:17:04;;;;;;;54.53;29.42;;;-1.20;1.00;;;;;;6215412;22;20268;-82
2022/12/17 15:19:32;;;;;;;53.05;26.38;;;-1.10;1.00;;;;;;6190022;22;20224;-83
2022/12/17 15:22:14;;;;;;;51.55;29.20;;;-1.10;1.00;;;;;;6223390;22;20205;-85
2022/12/17 15:24:49;;;;;;;50.35;28.05;;;-1.10;1.00;;;;;;6204903;22;20244;-83
2022/12/17 15:27:17;;;;;;;61.45;31.33;;;-1.10;1.00;;;;;;6219300;22;20337;-82
2022/12/17 15:29:48;;;;;;;48.83;28.10;;;-1.00;1.00;;;;;;6214110;22;20251;-84
2022/12/17 15:32:19;;;;;;;53.20;29.40;;;-1.00;1.00;;;;;;6223412;23;20269;-82
2022/12/17 15:34:47;;;;;;;52.85;29.35;;;-1.00;1.00;;;;;;6213182;22;20217;-81
2022/12/17 15:37:16;;;;;;;55.60;27.48;;;-1.00;1.00;;;;;;6225570;22;20359;-82
2022/12/17 15:39:45;;;;;;;46.90;28.33;;;-1.00;1.00;;;;;;6237246;22;20221;-83
2022/12/17 15:44:58;;;;;;;54.92;29.98;;;-1.10;1.00;;;;;;6236016;22;20213;-83
2022/12/17 15:47:25;;;;;;;50.30;27.75;;;-1.10;1.00;;;;;;6219823;22;20241;-84
2022/12/17 15:49:53;;;;;;;55.15;27.65;;;-1.20;1.00;;;;;;6222699;22;20217;-82
2022/12/17 15:52:20;;;;;;;51.88;26.40;;;-1.20;1.00;;;;;;6225390;22;20213;-83
2022/12/17 15:54:48;;;;;;;58.63;28.95;;;-1.30;1.00;;;;;;6214574;22;20283;-79
2022/12/17 15:57:17;;;;;;;50.88;27.92;;;-1.40;1.00;;;;;;6242941;22;20292;-80
2022/12/17 15:59:46;;;;;;;48.58;26.45;;;-1.50;1.00;;;;;;6223196;22;20217;-80
2022/12/17 16:02:16;;;;;;;49.38;27.95;;;-1.60;1.00;;;;;;6222780;22;20213;-80
2022/12/17 16:04:44;;;;;;;46.60;25.05;;;-1.70;1.00;;;;;;6218841;22;20237;-79
2022/12/17 16:07:11;;;;;;;51.00;26.33;;;-1.60;1.00;;;;;;6222819;22;21008;-80
2022/12/17 16:09:39;;;;;;;50.72;25.75;;;-1.70;1.00;;;;;;6217081;22;20305;-80
2022/12/17 16:12:09;;;;;;;54.92;27.77;;;-1.70;1.00;;;;;;6220928;22;20218;-79
2022/12/17 16:14:38;;;;;;;49.67;25.25;;;-1.70;1.00;;;;;;6220173;22;20403;-79
2022/12/17 16:17:07;;;;;;;60.15;27.13;;;-1.60;1.00;;;;;;6206988;22;20212;-77
2022/12/17 16:19:59;;;;;;;51.05;26.98;;;-1.60;1.00;;;;;;6202609;22;20214;-79
2022/12/17 16:22:26;;;;;;;57.25;27.77;;;-1.60;1.00;;;;;;6200201;22;20212;-78
2022/12/17 16:24:53;;;;;;;49.33;25.85;;;-1.60;1.00;;;;;;6206937;22;20217;-80
2022/12/17 16:27:25;;;;;;;52.25;26.75;;;-1.60;1.00;;;;;;6221546;22;20280;-78
2022/12/17 16:29:53;;;;;;;50.25;26.05;;;-1.60;1.00;;;;;;6223650;22;20217;-78
2022/12/17 16:32:20;;;;;;;52.17;26.73;;;-1.60;1.00;;;;;;6213531;22;20218;-79
2022/12/17 16:34:48;;;;;;;47.45;26.60;;;-1.60;1.00;;;;;;6222595;22;20220;-80
2022/12/17 16:37:15;;;;;;;49.45;25.88;;;-1.60;1.00;;;;;;6222630;22;20215;-77
2022/12/17 16:39:44;;;;;;;52.80;29.77;;;-1.60;1.00;;;;;;6220901;22;20984;-80
2022/12/17 16:42:15;;;;;;;114.18;87.50;;;-1.60;1.00;;;;;;6222335;22;20533;-78
2022/12/17 16:44:46;;;;;;;52.92;28.60;;;-1.50;1.00;;;;;;6206974;22;20237;-79
2022/12/17 16:47:15;;;;;;;49.58;26.83;;;-1.60;1.00;;;;;;6212328;22;20636;-80
2022/12/17 16:49:42;;;;;;;52.30;27.90;;;-1.50;1.00;;;;;;6227172;22;20216;-78
2022/12/17 16:52:09;;;;;;;48.42;25.48;;;-1.50;1.00;;;;;;6222980;23;20237;-80
2022/12/17 16:54:36;;;;;;;48.47;27.38;;;-1.70;1.00;;;;;;6221692;22;20222;-79
2022/12/17 16:57:03;;;;;;;53.58;29.35;;;-1.80;1.00;;;;;;6218932;22;20714;-79
2022/12/17 16:59:31;;;;;;;53.15;27.27;;;-1.80;1.00;;;;;;6206454;22;20225;-80
2022/12/17 17:02:26;;;;;;;49.22;27.38;;;-1.80;1.00;;;;;;6210199;22;20268;-78
2022/12/17 17:04:57;;;;;;;53.95;26.08;;;-1.90;1.00;;;;;;6214960;22;20224;-77
2022/12/17 17:07:27;;;;;;;45.92;26.20;;;-1.90;1.00;;;;;;6223109;22;20230;-79
2022/12/17 17:09:54;;;;;;;46.22;26.05;;;-1.90;1.00;;;;;;6212323;23;20244;-79
2022/12/17 17:12:29;;;;;;;49.17;26.90;;;-1.90;1.00;;;;;;6223699;22;20213;-78
2022/12/17 17:15:04;;;;;;;43.45;25.60;;;-1.80;1.00;;;;;;6230746;22;20217;-79
2022/12/17 17:17:31;;;;;;;52.75;29.23;;;-1.80;1.00;;;;;;6202878;22;20213;-78
2022/12/17 17:20:13;;;;;;;54.53;27.30;;;-1.90;1.00;;;;;;6229006;22;20639;-77
2022/12/17 17:22:49;;;;;;;51.67;26.15;;;-2.00;1.00;;;;;;6206744;22;20216;-77
2022/12/17 17:25:18;;;;;;;50.63;26.88;;;-2.10;1.00;;;;;;6228029;22;20216;-77
2022/12/17 17:27:49;;;;;;;58.20;30.45;;;-2.10;1.00;;;;;;6234080;22;20497;-80
2022/12/17 17:30:16;;;;;;;51.20;26.25;;;-2.10;1.00;;;;;;6223655;22;20210;-77
2022/12/17 17:32:46;;;;;;;54.30;28.10;;;-2.20;1.00;;;;;;6229574;22;20231;-78
2022/12/17 17:35:15;;;;;;;50.75;26.85;;;-2.30;1.00;;;;;;6213789;22;20221;-80
2022/12/17 17:37:42;;;;;;;48.85;25.83;;;-2.30;1.00;;;;;;6228441;22;20274;-78
2022/12/17 17:40:13;;;;;;;51.05;27.17;;;-2.30;1.00;;;;;;6228434;22;20220;-81
2022/12/17 17:42:40;;;;;;;50.67;27.08;;;-2.30;1.00;;;;;;6228733;22;20920;-80
2022/12/17 17:45:10;;;;;;;54.15;27.95;;;-2.40;1.00;;;;;;6227208;22;20209;-81
2022/12/17 17:47:37;;;;;;;63.45;30.25;;;-2.40;1.00;;;;;;6215292;22;20249;-81
2022/12/17 17:50:05;;;;;;;57.25;28.85;;;-2.30;1.00;;;;;;6220980;22;20282;-80
2022/12/17 17:52:34;;;;;;;49.97;28.88;;;-2.30;1.00;;;;;;6243651;22;20863;-80
2022/12/17 17:55:04;;;;;;;54.00;28.55;;;-2.30;1.00;;;;;;6227070;22;20302;-80
2022/12/17 17:57:33;;;;;;;48.97;25.23;;;-2.30;1.00;;;;;;6226656;22;20305;-79
2022/12/17 18:00:02;;;;;;;53.30;27.20;;;-2.30;1.00;;;;;;6230080;22;20971;-79
2022/12/17 18:02:36;;;;;;;41.83;22.75;;;-2.30;1.00;;;;;;6232632;22;20222;-79
2022/12/17 18:05:05;;;;;;;46.25;26.58;;;-2.30;1.00;;;;;;6230002;22;20228;-79
2022/12/17 18:07:37;;;;;;;47.97;23.70;;;-2.40;1.00;;;;;;6228084;22;20213;-79
2022/12/17 18:10:16;;;;;;;48.38;25.15;;;-2.60;1.00;;;;;;6229106;22;20329;-80
2022/12/17 18:15:36;;;;;;;46.83;23.98;;;-2.60;1.00;;;;;;6230652;22;20216;-79
2022/12/17 18:18:04;;;;;;;50.03;22.67;;;-2.50;1.00;;;;;;6232705;22;20209;-80
2022/12/17 18:20:37;;;;;;;47.92;24.17;;;-2.50;1.00;;;;;;6230064;22;20200;-80
2022/12/17 18:23:05;;;;;;;55.47;25.02;;;-2.50;1.00;;;;;;6230491;22;20264;-81
2022/12/17 18:25:36;;;;;;;48.83;25.30;;;-2.40;1.00;;;;;;6222299;22;20213;-80
2022/12/17 18:28:06;;;;;;;49.08;24.67;;;-2.40;1.00;;;;;;6211094;22;20228;-81
2022/12/17 18:30:45;;;;;;;49.67;24.85;;;-2.50;1.00;;;;;;6203198;22;21017;-80
2022/12/17 18:33:27;;;;;;;67.63;32.92;;;-2.50;1.00;;;;;;6229713;22;20208;-82
2022/12/17 18:35:58;;;;;;;46.55;24.73;;;-2.50;1.00;;;;;;6211237;22;20275;-80
2022/12/17 18:38:27;;;;;;;49.25;25.55;;;-2.50;1.00;;;;;;6212032;22;20213;-82
2022/12/17 18:40:57;;;;;;;49.45;25.70;;;-2.50;1.00;;;;;;6212903;22;20211;-81
2022/12/17 18:43:26;;;;;;;45.67;24.42;;;-2.50;1.00;;;;;;6214221;22;20753;-81
2022/12/17 18:48:46;;;;;;;51.00;26.10;;;-2.40;1.00;;;;;;6107757;23;20218;-78
2022/12/17 18:51:16;;;;;;;50.67;24.00;;;-2.30;1.00;;;;;;6204784;22;20682;-81
2022/12/17 18:53:46;;;;;;;47.83;25.67;;;-2.30;1.00;;;;;;6208941;22;20223;-81
2022/12/17 18:56:17;;;;;;;55.35;25.20;;;-2.30;1.00;;;;;;6227432;22;20224;-81
2022/12/17 18:59:18;;;;;;;59.45;27.35;;;-2.40;1.00;;;;;;6212155;22;21144;-80
2022/12/17 19:01:56;;;;;;;48.45;24.23;;;-2.50;1.00;;;;;;6010622;23;20225;-77
2022/12/17 19:04:27;;;;;;;42.28;23.70;;;-2.50;1.00;;;;;;6037492;23;21007;-78
2022/12/17 19:06:57;;;;;;;45.20;23.08;;;-2.60;1.00;;;;;;6039904;23;20228;-79
2022/12/17 19:09:47;;;;;;;54.03;24.85;;;-2.80;1.00;;;;;;6053988;23;20219;-78
2022/12/17 19:12:16;;;;;;;47.38;23.73;;;-2.90;1.00;;;;;;6218073;22;20200;-81
2022/12/17 19:14:46;;;;;;;39.20;19.55;;;-2.90;1.00;;;;;;6220424;22;20193;-82
2022/12/17 19:17:17;;;;;;;43.30;22.00;;;-2.90;1.00;;;;;;6227998;22;20215;-77
2022/12/17 19:19:47;;;;;;;40.30;20.67;;;-2.90;1.00;;;;;;6228647;22;20227;-80
2022/12/17 19:22:16;;;;;;;38.03;20.65;;;-2.90;1.00;;;;;;6231246;22;20221;-78
2022/12/17 19:24:47;;;;;;;39.97;19.23;;;-3.00;1.00;;;;;;6226067;22;21094;-78
2022/12/17 19:27:16;;;;;;;49.10;20.90;;;-3.10;1.00;;;;;;6224689;22;20227;-78
2022/12/17 19:32:45;;;;;;;41.72;19.10;;;-3.30;1.00;;;;;;6202078;22;20219;-79
2022/12/17 19:35:27;;;;;;;44.72;20.55;;;-3.20;1.00;;;;;;6219248;22;20208;-78
2022/12/17 19:37:56;;;;;;;42.35;19.27;;;-3.20;1.00;;;;;;6216906;22;20240;-80
2022/12/17 19:40:27;;;;;;;37.92;20.40;;;-3.20;1.00;;;;;;6219552;22;20212;-81
2022/12/17 19:42:58;;;;;;;41.90;21.02;;;-3.20;1.00;;;;;;6215998;22;20215;-79
2022/12/17 19:45:27;;;;;;;40.75;20.35;;;-3.20;1.00;;;;;;6236730;22;20296;-79
2022/12/17 19:47:54;;;;;;;43.08;19.48;;;-3.20;1.00;;;;;;6228771;22;20224;-82
2022/12/17 19:50:24;;;;;;;41.10;19.83;;;-3.20;1.00;;;;;;6215877;22;20963;-82
2022/12/17 19:53:17;;;;;;;41.47;21.38;;;-3.30;1.00;;;;;;6224443;22;20234;-82
2022/12/17 19:55:48;;;;;;;40.22;20.02;;;-3.30;1.00;;;;;;6204743;22;20226;-79
2022/12/17 19:58:18;;;;;;;38.70;19.25;;;-3.30;1.00;;;;;;6222652;22;20196;-78
2022/12/17 20:00:47;;;;;;;47.95;22.80;;;-3.20;1.00;;;;;;6228449;22;20258;-80
2022/12/17 20:03:17;;;;;;;43.17;22.00;;;-3.20;1.00;;;;;;6225767;22;20216;-78
2022/12/17 20:05:50;;;;;;;38.50;21.13;;;-3.20;1.00;;;;;;6231453;22;20216;-80
2022/12/17 20:08:18;;;;;;;42.22;22.00;;;-3.20;1.00;;;;;;6229681;22;20214;-79
2022/12/17 20:10:46;;;;;;;41.65;20.60;;;-3.20;1.00;;;;;;6208708;22;20213;-80
2022/12/17 20:13:13;;;;;;;42.95;20.83;;;-3.10;1.00;;;;;;6226663;22;20445;-79
2022/12/17 20:15:40;;;;;;;46.83;25.13;;;-3.20;1.00;;;;;;6220276;22;20935;-81
2022/12/17 20:18:10;;;;;;;41.00;21.88;;;-3.20;1.00;;;;;;6223262;22;20220;-81
2022/12/17 20:20:40;;;;;;;36.70;20.25;;;-3.20;1.00;;;;;;6224069;22;20209;-81
2022/12/17 20:23:07;;;;;;;41.65;20.55;;;-3.20;1.00;;;;;;6222040;22;20220;-81
2022/12/17 20:25:40;;;;;;;35.20;19.67;;;-3.20;1.00;;;;;;6220219;22;20223;-79
2022/12/17 20:28:08;;;;;;;39.72;19.92;;;-3.30;1.00;;;;;;6223379;22;20210;-80
2022/12/17 20:30:39;;;;;;;38.83;18.95;;;-3.40;1.00;;;;;;6223108;22;20335;-82
2022/12/17 20:33:06;;;;;;;33.40;17.95;;;-3.50;1.00;;;;;;6225713;22;20295;-81
2022/12/17 20:35:40;;;;;;;39.60;19.52;;;-3.40;1.00;;;;;;6225827;22;20223;-80
2022/12/17 20:38:07;;;;;;;39.55;20.10;;;-3.40;1.00;;;;;;6226022;22;20239;-80
2022/12/17 20:40:38;;;;;;;35.13;19.48;;;-3.30;1.00;;;;;;6230940;22;20208;-82
2022/12/17 20:43:06;;;;;;;39.05;19.10;;;-3.40;1.00;;;;;;6222107;23;20295;-81
2022/12/17 20:45:35;;;;;;;43.03;20.60;;;-3.40;1.00;;;;;;6219717;22;20934;-80
2022/12/17 20:48:02;;;;;;;37.28;20.85;;;-3.40;1.00;;;;;;6220978;22;20913;-81
2022/12/17 20:50:29;;;;;;;36.08;20.33;;;-3.40;1.00;;;;;;6219162;22;20209;-79
2022/12/17 20:52:59;;;;;;;36.25;20.25;;;-3.60;1.00;;;;;;6223088;22;20219;-81
2022/12/17 20:55:30;;;;;;;37.53;20.35;;;-3.50;1.00;;;;;;6223790;22;20197;-80
2022/12/17 20:57:57;;;;;;;43.92;21.60;;;-3.50;1.00;;;;;;6221988;22;20222;-82
2022/12/17 21:00:24;;;;;;;45.95;21.15;;;-3.50;1.00;;;;;;6223835;22;20214;-81
2022/12/17 21:02:53;;;;;;;37.35;20.90;;;-3.50;1.00;;;;;;6228726;22;20216;-80
2022/12/17 21:05:21;;;;;;;47.70;22.90;;;-3.40;1.00;;;;;;6228879;22;20574;-79
2022/12/17 21:07:52;;;;;;;46.10;22.13;;;-3.40;1.00;;;;;;6221919;22;20224;-79
2022/12/17 21:10:20;;;;;;;46.67;27.50;;;-3.30;1.00;;;;;;6221303;22;20213;-80
2022/12/17 21:15:33;;;;;;;45.17;21.80;;;-3.30;1.00;;;;;;6230351;22;20245;-80
2022/12/17 21:18:02;;;;;;;40.90;21.88;;;-3.60;1.00;;;;;;6228924;22;20220;-81
2022/12/17 21:20:31;;;;;;;39.55;21.23;;;-3.70;1.00;;;;;;6229699;22;20300;-82
2022/12/17 21:23:00;;;;;;;37.17;20.65;;;-3.80;1.00;;;;;;6242694;22;21032;-78
2022/12/17 21:25:27;;;;;;;44.17;20.75;;;-3.80;1.00;;;;;;6229121;22;20216;-80
2022/12/17 21:28:00;;;;;;;42.65;20.50;;;-3.90;1.00;;;;;;6229914;22;20292;-80
2022/12/17 21:30:27;;;;;;;41.13;21.00;;;-4.00;1.00;;;;;;6229272;22;20263;-82
2022/12/17 21:32:59;;;;;;;45.08;21.15;;;-4.00;1.00;;;;;;6232557;22;20283;-80
2022/12/17 21:35:28;;;;;;;40.53;21.30;;;-4.00;1.00;;;;;;6230981;22;20684;-80
2022/12/17 21:38:01;;;;;;;47.03;20.98;;;-4.00;1.00;;;;;;6232605;22;20216;-80
2022/12/17 21:40:28;;;;;;;54.28;21.90;;;-4.00;1.00;;;;;;6228515;22;20276;-82
2022/12/17 21:43:03;;;;;;;48.58;23.38;;;-4.00;1.00;;;;;;6227619;22;20255;-81
2022/12/17 21:45:40;;;;;;;47.00;21.55;;;-4.00;1.00;;;;;;6225178;22;20224;-79
2022/12/17 21:48:12;;;;;;;46.70;21.20;;;-4.00;1.00;;;;;;6226722;22;20222;-80
2022/12/17 21:50:42;;;;;;;45.90;20.58;;;-4.10;1.00;;;;;;6229808;22;21021;-80
2022/12/17 21:53:10;;;;;;;48.53;20.83;;;-4.00;1.00;;;;;;6228213;22;20221;-81
2022/12/17 21:55:40;;;;;;;40.72;22.55;;;-3.90;1.00;;;;;;6227845;22;20644;-82
2022/12/17 21:58:08;;;;;;;45.88;23.13;;;-3.80;1.00;;;;;;6225835;22;20984;-77
2022/12/17 22:00:39;;;;;;;48.15;21.83;;;-3.80;1.00;;;;;;6227558;22;20213;-80
2022/12/17 22:03:07;;;;;;;45.03;20.02;;;-3.70;1.00;;;;;;6229614;22;20208;-78
2022/12/17 22:05:41;;;;;;;39.55;20.40;;;-3.90;1.00;;;;;;6228454;22;20327;-79
2022/12/17 22:08:11;;;;;;;42.10;21.58;;;-4.00;1.00;;;;;;6232234;22;20215;-80
2022/12/17 22:10:41;;;;;;;36.88;18.55;;;-4.00;1.00;;;;;;6225233;22;20219;-81
2022/12/17 22:16:00;;;;;;;48.20;18.52;;;-4.00;1.00;;;;;;6226345;22;20298;-81
2022/12/17 22:18:28;;;;;;;45.90;20.55;;;-4.00;1.00;;;;;;6230064;22;20215;-82
2022/12/17 22:21:02;;;;;;;44.50;22.60;;;-4.00;1.00;;;;;;6225075;22;20892;-79
2022/12/17 22:26:14;;;;;;;43.15;21.05;;;-4.20;1.00;;;;;;6227516;22;20212;-79
2022/12/17 22:28:47;;;;;;;48.03;20.90;;;-4.20;1.00;;;;;;6221749;22;20212;-79
2022/12/17 22:34:05;;;;;;;38.47;21.10;;;-4.00;1.00;;;;;;6222547;22;20220;-80
2022/12/17 22:36:39;;;;;;;42.17;21.42;;;-3.90;1.00;;;;;;6226585;22;20231;-82
2022/12/17 22:39:09;;;;;;;45.03;20.92;;;-3.80;1.00;;;;;;6225924;22;20234;-80
2022/12/17 22:44:42;;;;;;;41.38;21.98;;;-3.80;1.00;;;;;;6217558;22;20252;-80
2022/12/17 22:47:09;;;;;;;39.90;20.58;;;-4.00;1.00;;;;;;6233271;22;20930;-80
2022/12/17 22:49:40;;;;;;;42.85;21.20;;;-4.10;1.00;;;;;;6222580;22;20211;-80
2022/12/17 22:52:09;;;;;;;41.47;19.15;;;-4.20;1.00;;;;;;6228585;22;20223;-81
2022/12/17 22:54:37;;;;;;;38.03;20.08;;;-4.30;1.00;;;;;;6227763;22;20216;-82
2022/12/17 22:57:05;;;;;;;46.97;24.35;;;-4.30;1.00;;;;;;6225928;22;20216;-82
2022/12/17 22:59:32;;;;;;;41.53;21.48;;;-4.30;1.00;;;;;;6232369;22;20211;-80
2022/12/17 23:02:02;;;;;;;43.10;20.77;;;-4.30;1.00;;;;;;6232664;23;20222;-81
2022/12/17 23:04:29;;;;;;;34.40;19.17;;;-4.20;1.00;;;;;;6225097;22;20298;-82
2022/12/17 23:07:00;;;;;;;39.70;20.27;;;-4.30;1.00;;;;;;6222463;22;20222;-80
2022/12/17 23:09:30;;;;;;;40.90;20.25;;;-4.20;1.00;;;;;;6220978;22;20232;-79
2022/12/17 23:12:49;;;;;;;36.40;18.45;;;-4.20;1.00;;;;;;6220169;22;20211;-79
2022/12/17 23:14:49;;;;;;;35.10;16.88;;;-4.10;1.00;;;;;;6221569;22;20224;-80
2022/12/17 23:17:16;;;;;;;37.05;18.95;;;-4.10;1.00;;;;;;6222460;22;21022;-78
2022/12/17 23:19:44;;;;;;;33.78;16.98;;;-4.20;1.00;;;;;;6222328;22;20220;-82
2022/12/17 23:22:11;;;;;;;37.72;18.10;;;-4.30;1.00;;;;;;6219613;22;20953;-79
2022/12/17 23:24:41;;;;;;;45.58;19.48;;;-4.40;1.00;;;;;;6217578;22;20219;-79
2022/12/17 23:27:08;;;;;;;42.17;18.77;;;-4.40;1.00;;;;;;6218953;23;20216;-78
2022/12/17 23:29:35;;;;;;;40.50;20.23;;;-4.40;1.00;;;;;;6220132;22;20226;-80
2022/12/17 23:32:03;;;;;;;42.97;20.92;;;-4.20;1.00;;;;;;6219497;23;20219;-80
2022/12/17 23:34:33;;;;;;;44.13;18.92;;;-4.20;1.00;;;;;;6218152;22;20874;-79
2022/12/17 23:37:03;;;;;;;42.42;19.30;;;-4.20;1.00;;;;;;6221061;22;20222;-82
2022/12/17 23:39:31;;;;;;;40.38;19.85;;;-4.30;1.00;;;;;;6220795;22;20681;-81
2022/12/17 23:42:03;;;;;;;39.83;19.45;;;-4.30;1.00;;;;;;6221378;22;20217;-81
2022/12/17 23:44:30;;;;;;;39.70;18.70;;;-4.30;1.00;;;;;;6220976;22;20235;-80
2022/12/17 23:46:59;;;;;;;42.75;20.85;;;-4.40;1.00;;;;;;6223759;22;20218;-80
2022/12/17 23:49:27;;;;;;;37.40;19.33;;;-4.50;1.00;;;;;;6222428;22;20296;-80
2022/12/17 23:51:54;;;;;;;44.30;20.88;;;-4.60;1.00;;;;;;6223605;22;20220;-80
2022/12/17 23:54:23;;;;;;;49.67;21.63;;;-4.80;1.00;;;;;;6223941;22;20216;-79
2022/12/17 23:56:50;;;;;;;41.20;18.08;;;-4.90;1.00;;;;;;6224771;22;20960;-78
2022/12/17 23:59:19;;;;;;;53.38;19.65;;;-4.90;1.00;;;;;;6225747;22;20210;-80
